sensor_id;sensor_type;location;lat;lon;timestamp;P1;durP1;ratioP1;P2;durP2;ratioP2
4096;SDS011;2062;50.694;7.246;2022-09-09T00:00:17;3.70;;;0.70;;
4096;SDS011;2062;50.694;7.246;2022-09-09T00:02:49;3.08;;;0.68;;
4096;SDS011;2062;50.694;7.246;2022-09-09T00:05:27;3.85;;;0.80;;
4096;SDS011;2062;50.694;7.246;2022-09-09T00:07:59;4.47;;;0.90;;
4096;SDS011;2062;50.694;7.246;2022-09-09T00:10:29;3.63;;;0.70;;
4096;SDS011;2062;50.694;7.246;2022-09-09T00:13:00;4.32;;;0.75;;
4096;SDS011;2062;50.694;7.246;2022-09-09T00:15:33;2.85;;;0.77;;
4096;SDS011;2062;50.694;7.246;2022-09-09T00:18:13;3.85;;;0.95;;
4096;SDS011;2062;50.694;7.246;2022-09-09T00:20:47;3.20;;;0.80;;
4096;SDS011;2062;50.694;7.246;2022-09-09T00:23:23;3.13;;;0.70;;
4096;SDS011;2062;50.694;7.246;2022-09-09T00:25:55;3.47;;;0.60;;
4096;SDS011;2062;50.694;7.246;2022-09-09T00:28:28;3.00;;;0.73;;
4096;SDS011;2062;50.694;7.246;2022-09-09T00:30:59;6.30;;;0.80;;
4096;SDS011;2062;50.694;7.246;2022-09-09T00:33:36;3.43;;;0.70;;
4096;SDS011;2062;50.694;7.246;2022-09-09T00:36:04;3.50;;;0.80;;
4096;SDS011;2062;50.694;7.246;2022-09-09T00:38:39;3.35;;;0.70;;
4096;SDS011;2062;50.694;7.246;2022-09-09T00:41:11;5.03;;;0.70;;
4096;SDS011;2062;50.694;7.246;2022-09-09T00:43:43;3.55;;;0.90;;
4096;SDS011;2062;50.694;7.246;2022-09-09T00:46:24;3.30;;;0.80;;
4096;SDS011;2062;50.694;7.246;2022-09-09T00:49:09;3.00;;;0.70;;
4096;SDS011;2062;50.694;7.246;2022-09-09T00:51:45;3.35;;;0.70;;
4096;SDS011;2062;50.694;7.246;2022-09-09T00:54:27;4.10;;;0.93;;
4096;SDS011;2062;50.694;7.246;2022-09-09T00:57:07;3.38;;;0.77;;
4096;SDS011;2062;50.694;7.246;2022-09-09T00:59:43;2.70;;;0.50;;
4096;SDS011;2062;50.694;7.246;2022-09-09T01:02:16;3.20;;;0.57;;
4096;SDS011;2062;50.694;7.246;2022-09-09T01:04:53;3.08;;;0.50;;
4096;SDS011;2062;50.694;7.246;2022-09-09T01:07:20;7.57;;;0.80;;
4096;SDS011;2062;50.694;7.246;2022-09-09T01:09:54;3.05;;;0.70;;
4096;SDS011;2062;50.694;7.246;2022-09-09T01:12:24;3.60;;;0.80;;
4096;SDS011;2062;50.694;7.246;2022-09-09T01:15:03;2.97;;;0.60;;
4096;SDS011;2062;50.694;7.246;2022-09-09T01:17:36;2.90;;;0.68;;
4096;SDS011;2062;50.694;7.246;2022-09-09T01:20:15;2.55;;;0.70;;
4096;SDS011;2062;50.694;7.246;2022-09-09T01:22:47;3.90;;;0.85;;
4096;SDS011;2062;50.694;7.246;2022-09-09T01:25:28;3.00;;;0.70;;
4096;SDS011;2062;50.694;7.246;2022-09-09T01:27:59;4.68;;;0.82;;
4096;SDS011;2062;50.694;7.246;2022-09-09T01:30:29;2.97;;;0.70;;
4096;SDS011;2062;50.694;7.246;2022-09-09T01:32:57;3.17;;;0.60;;
4096;SDS011;2062;50.694;7.246;2022-09-09T01:35:34;2.80;;;0.73;;
4096;SDS011;2062;50.694;7.246;2022-09-09T01:38:05;3.13;;;0.80;;
4096;SDS011;2062;50.694;7.246;2022-09-09T01:40:32;2.53;;;0.68;;
4096;SDS011;2062;50.694;7.246;2022-09-09T01:43:01;3.33;;;0.70;;
4096;SDS011;2062;50.694;7.246;2022-09-09T01:45:28;3.53;;;0.80;;
4096;SDS011;2062;50.694;7.246;2022-09-09T01:47:56;3.28;;;0.70;;
4096;SDS011;2062;50.694;7.246;2022-09-09T01:50:23;2.70;;;0.70;;
4096;SDS011;2062;50.694;7.246;2022-09-09T01:52:50;3.50;;;0.70;;
4096;SDS011;2062;50.694;7.246;2022-09-09T01:55:20;2.60;;;0.55;;
4096;SDS011;2062;50.694;7.246;2022-09-09T01:57:55;3.30;;;0.65;;
4096;SDS011;2062;50.694;7.246;2022-09-09T02:00:31;2.88;;;0.70;;
4096;SDS011;2062;50.694;7.246;2022-09-09T02:03:00;3.90;;;0.77;;
4096;SDS011;2062;50.694;7.246;2022-09-09T02:05:34;4.13;;;0.60;;
4096;SDS011;2062;50.694;7.246;2022-09-09T02:08:05;3.13;;;0.70;;
4096;SDS011;2062;50.694;7.246;2022-09-09T02:10:36;3.10;;;0.70;;
4096;SDS011;2062;50.694;7.246;2022-09-09T02:13:11;3.83;;;0.85;;
4096;SDS011;2062;50.694;7.246;2022-09-09T02:15:40;3.63;;;0.73;;
4096;SDS011;2062;50.694;7.246;2022-09-09T02:18:11;2.40;;;0.65;;
4096;SDS011;2062;50.694;7.246;2022-09-09T02:20:41;3.05;;;0.70;;
4096;SDS011;2062;50.694;7.246;2022-09-09T02:23:10;3.30;;;0.70;;
4096;SDS011;2062;50.694;7.246;2022-09-09T02:25:38;3.05;;;0.80;;
4096;SDS011;2062;50.694;7.246;2022-09-09T02:28:09;2.97;;;0.60;;
4096;SDS011;2062;50.694;7.246;2022-09-09T02:30:38;3.67;;;0.65;;
4096;SDS011;2062;50.694;7.246;2022-09-09T02:33:07;2.65;;;0.60;;
4096;SDS011;2062;50.694;7.246;2022-09-09T02:35:35;4.43;;;0.70;;
4096;SDS011;2062;50.694;7.246;2022-09-09T02:38:04;3.10;;;0.80;;
4096;SDS011;2062;50.694;7.246;2022-09-09T02:40:33;3.87;;;0.60;;
4096;SDS011;2062;50.694;7.246;2022-09-09T02:43:00;2.78;;;0.70;;
4096;SDS011;2062;50.694;7.246;2022-09-09T02:45:31;3.15;;;0.70;;
4096;SDS011;2062;50.694;7.246;2022-09-09T02:48:07;3.33;;;0.73;;
4096;SDS011;2062;50.694;7.246;2022-09-09T02:50:41;3.05;;;0.60;;
4096;SDS011;2062;50.694;7.246;2022-09-09T02:53:19;2.97;;;0.70;;
4096;SDS011;2062;50.694;7.246;2022-09-09T02:55:50;3.20;;;0.75;;
4096;SDS011;2062;50.694;7.246;2022-09-09T02:58:21;2.88;;;0.60;;
4096;SDS011;2062;50.694;7.246;2022-09-09T03:00:50;2.80;;;0.70;;
4096;SDS011;2062;50.694;7.246;2022-09-09T03:03:18;4.32;;;1.15;;
4096;SDS011;2062;50.694;7.246;2022-09-09T03:05:47;2.90;;;0.70;;
4096;SDS011;2062;50.694;7.246;2022-09-09T03:08:14;3.58;;;0.80;;
4096;SDS011;2062;50.694;7.246;2022-09-09T03:10:42;2.67;;;0.80;;
4096;SDS011;2062;50.694;7.246;2022-09-09T03:13:09;2.80;;;0.77;;
4096;SDS011;2062;50.694;7.246;2022-09-09T03:15:37;2.50;;;0.60;;
4096;SDS011;2062;50.694;7.246;2022-09-09T03:18:05;2.40;;;0.60;;
4096;SDS011;2062;50.694;7.246;2022-09-09T03:20:32;3.53;;;0.70;;
4096;SDS011;2062;50.694;7.246;2022-09-09T03:23:00;4.00;;;0.70;;
4096;SDS011;2062;50.694;7.246;2022-09-09T03:25:27;2.67;;;0.70;;
4096;SDS011;2062;50.694;7.246;2022-09-09T03:27:55;2.60;;;0.63;;
4096;SDS011;2062;50.694;7.246;2022-09-09T03:30:22;3.00;;;0.70;;
4096;SDS011;2062;50.694;7.246;2022-09-09T03:32:49;3.60;;;0.70;;
4096;SDS011;2062;50.694;7.246;2022-09-09T03:35:17;3.55;;;0.60;;
4096;SDS011;2062;50.694;7.246;2022-09-09T03:37:44;2.25;;;0.55;;
4096;SDS011;2062;50.694;7.246;2022-09-09T03:40:11;2.70;;;0.60;;
4096;SDS011;2062;50.694;7.246;2022-09-09T03:42:38;2.20;;;0.50;;
4096;SDS011;2062;50.694;7.246;2022-09-09T03:45:06;2.47;;;0.50;;
4096;SDS011;2062;50.694;7.246;2022-09-09T03:47:35;2.85;;;0.60;;
4096;SDS011;2062;50.694;7.246;2022-09-09T03:50:03;2.53;;;0.65;;
4096;SDS011;2062;50.694;7.246;2022-09-09T03:52:35;2.47;;;0.68;;
4096;SDS011;2062;50.694;7.246;2022-09-09T03:55:02;3.63;;;0.70;;
4096;SDS011;2062;50.694;7.246;2022-09-09T03:57:30;3.58;;;0.70;;
4096;SDS011;2062;50.694;7.246;2022-09-09T03:59:59;3.13;;;0.60;;
4096;SDS011;2062;50.694;7.246;2022-09-09T04:02:27;4.03;;;0.60;;
4096;SDS011;2062;50.694;7.246;2022-09-09T04:04:53;3.25;;;0.57;;
4096;SDS011;2062;50.694;7.246;2022-09-09T04:07:21;3.20;;;0.80;;
4096;SDS011;2062;50.694;7.246;2022-09-09T04:09:49;2.90;;;0.55;;
4096;SDS011;2062;50.694;7.246;2022-09-09T04:12:16;3.10;;;0.80;;
4096;SDS011;2062;50.694;7.246;2022-09-09T04:14:43;3.58;;;0.70;;
4096;SDS011;2062;50.694;7.246;2022-09-09T04:17:09;3.08;;;0.70;;
4096;SDS011;2062;50.694;7.246;2022-09-09T04:19:36;5.80;;;1.10;;
4096;SDS011;2062;50.694;7.246;2022-09-09T04:22:03;9.77;;;1.13;;
4096;SDS011;2062;50.694;7.246;2022-09-09T04:24:30;6.30;;;1.00;;
4096;SDS011;2062;50.694;7.246;2022-09-09T04:26:58;10.45;;;1.10;;
4096;SDS011;2062;50.694;7.246;2022-09-09T04:29:25;5.63;;;1.27;;
4096;SDS011;2062;50.694;7.246;2022-09-09T04:31:51;11.40;;;1.50;;
4096;SDS011;2062;50.694;7.246;2022-09-09T04:34:18;5.63;;;1.13;;
4096;SDS011;2062;50.694;7.246;2022-09-09T04:36:45;6.45;;;1.10;;
4096;SDS011;2062;50.694;7.246;2022-09-09T04:39:12;7.95;;;1.02;;
4096;SDS011;2062;50.694;7.246;2022-09-09T04:41:39;4.70;;;1.13;;
4096;SDS011;2062;50.694;7.246;2022-09-09T04:44:07;8.70;;;0.90;;
4096;SDS011;2062;50.694;7.246;2022-09-09T04:46:35;7.40;;;1.20;;
4096;SDS011;2062;50.694;7.246;2022-09-09T04:49:01;12.70;;;1.40;;
4096;SDS011;2062;50.694;7.246;2022-09-09T04:51:28;9.88;;;1.02;;
4096;SDS011;2062;50.694;7.246;2022-09-09T04:53:56;9.00;;;1.40;;
4096;SDS011;2062;50.694;7.246;2022-09-09T04:56:23;9.97;;;1.30;;
4096;SDS011;2062;50.694;7.246;2022-09-09T04:58:51;9.80;;;1.17;;
4096;SDS011;2062;50.694;7.246;2022-09-09T05:01:21;6.70;;;1.33;;
4096;SDS011;2062;50.694;7.246;2022-09-09T05:03:49;7.93;;;1.30;;
4096;SDS011;2062;50.694;7.246;2022-09-09T05:06:17;6.75;;;1.13;;
4096;SDS011;2062;50.694;7.246;2022-09-09T05:08:45;5.90;;;0.90;;
4096;SDS011;2062;50.694;7.246;2022-09-09T05:11:13;7.75;;;0.95;;
4096;SDS011;2062;50.694;7.246;2022-09-09T05:13:42;6.55;;;1.13;;
4096;SDS011;2062;50.694;7.246;2022-09-09T05:16:09;5.75;;;1.13;;
4096;SDS011;2062;50.694;7.246;2022-09-09T05:18:38;8.68;;;1.30;;
4096;SDS011;2062;50.694;7.246;2022-09-09T05:21:05;6.87;;;1.07;;
4096;SDS011;2062;50.694;7.246;2022-09-09T05:23:32;6.73;;;1.00;;
4096;SDS011;2062;50.694;7.246;2022-09-09T05:25:59;5.50;;;1.10;;
4096;SDS011;2062;50.694;7.246;2022-09-09T05:28:26;6.82;;;1.00;;
4096;SDS011;2062;50.694;7.246;2022-09-09T05:30:57;6.43;;;1.50;;
4096;SDS011;2062;50.694;7.246;2022-09-09T05:33:25;8.90;;;1.02;;
4096;SDS011;2062;50.694;7.246;2022-09-09T05:36:00;3.77;;;0.90;;
4096;SDS011;2062;50.694;7.246;2022-09-09T05:38:30;6.85;;;1.25;;
4096;SDS011;2062;50.694;7.246;2022-09-09T05:40:58;7.32;;;1.10;;
4096;SDS011;2062;50.694;7.246;2022-09-09T05:43:25;6.97;;;1.20;;
4096;SDS011;2062;50.694;7.246;2022-09-09T05:46:00;6.32;;;1.00;;
4096;SDS011;2062;50.694;7.246;2022-09-09T05:48:29;5.97;;;1.10;;
4096;SDS011;2062;50.694;7.246;2022-09-09T05:50:57;5.30;;;1.00;;
4096;SDS011;2062;50.694;7.246;2022-09-09T05:53:26;6.28;;;1.30;;
4096;SDS011;2062;50.694;7.246;2022-09-09T05:56:00;6.05;;;1.20;;
4096;SDS011;2062;50.694;7.246;2022-09-09T05:58:28;5.25;;;1.27;;
4096;SDS011;2062;50.694;7.246;2022-09-09T06:01:00;4.77;;;1.00;;
4096;SDS011;2062;50.694;7.246;2022-09-09T06:03:27;5.68;;;1.00;;
4096;SDS011;2062;50.694;7.246;2022-09-09T06:05:57;8.20;;;1.00;;
4096;SDS011;2062;50.694;7.246;2022-09-09T06:08:26;4.88;;;1.20;;
4096;SDS011;2062;50.694;7.246;2022-09-09T06:10:53;4.82;;;1.10;;
4096;SDS011;2062;50.694;7.246;2022-09-09T06:13:28;5.10;;;1.03;;
4096;SDS011;2062;50.694;7.246;2022-09-09T06:15:56;6.40;;;1.27;;
4096;SDS011;2062;50.694;7.246;2022-09-09T06:18:23;8.95;;;3.45;;
4096;SDS011;2062;50.694;7.246;2022-09-09T06:20:54;7.47;;;3.53;;
4096;SDS011;2062;50.694;7.246;2022-09-09T06:23:27;8.00;;;2.03;;
4096;SDS011;2062;50.694;7.246;2022-09-09T06:26:00;6.40;;;1.90;;
4096;SDS011;2062;50.694;7.246;2022-09-09T06:28:28;6.03;;;1.73;;
4096;SDS011;2062;50.694;7.246;2022-09-09T06:30:57;6.90;;;1.55;;
4096;SDS011;2062;50.694;7.246;2022-09-09T06:33:24;5.80;;;1.30;;
4096;SDS011;2062;50.694;7.246;2022-09-09T06:35:52;5.53;;;1.50;;
4096;SDS011;2062;50.694;7.246;2022-09-09T06:38:22;6.73;;;1.20;;
4096;SDS011;2062;50.694;7.246;2022-09-09T06:40:52;5.07;;;1.25;;
4096;SDS011;2062;50.694;7.246;2022-09-09T06:43:20;5.25;;;1.20;;
4096;SDS011;2062;50.694;7.246;2022-09-09T06:45:52;5.85;;;1.17;;
4096;SDS011;2062;50.694;7.246;2022-09-09T06:48:20;6.28;;;1.40;;
4096;SDS011;2062;50.694;7.246;2022-09-09T06:50:47;4.93;;;1.07;;
4096;SDS011;2062;50.694;7.246;2022-09-09T06:53:15;5.53;;;1.17;;
4096;SDS011;2062;50.694;7.246;2022-09-09T06:55:44;5.38;;;1.30;;
4096;SDS011;2062;50.694;7.246;2022-09-09T06:58:12;3.83;;;1.05;;
4096;SDS011;2062;50.694;7.246;2022-09-09T07:00:39;3.90;;;0.90;;
4096;SDS011;2062;50.694;7.246;2022-09-09T07:03:06;5.83;;;0.90;;
4096;SDS011;2062;50.694;7.246;2022-09-09T07:05:32;4.10;;;1.00;;
4096;SDS011;2062;50.694;7.246;2022-09-09T07:08:00;4.75;;;1.20;;
4096;SDS011;2062;50.694;7.246;2022-09-09T07:10:27;4.63;;;1.00;;
4096;SDS011;2062;50.694;7.246;2022-09-09T07:12:54;5.15;;;1.10;;
4096;SDS011;2062;50.694;7.246;2022-09-09T07:15:22;4.20;;;0.90;;
4096;SDS011;2062;50.694;7.246;2022-09-09T07:17:49;5.47;;;1.10;;
4096;SDS011;2062;50.694;7.246;2022-09-09T07:20:18;4.85;;;1.20;;
4096;SDS011;2062;50.694;7.246;2022-09-09T07:22:45;5.13;;;1.10;;
4096;SDS011;2062;50.694;7.246;2022-09-09T07:25:12;4.53;;;1.10;;
4096;SDS011;2062;50.694;7.246;2022-09-09T07:27:39;4.53;;;1.20;;
4096;SDS011;2062;50.694;7.246;2022-09-09T07:30:06;4.55;;;1.10;;
4096;SDS011;2062;50.694;7.246;2022-09-09T07:32:35;4.97;;;1.10;;
4096;SDS011;2062;50.694;7.246;2022-09-09T07:35:02;3.42;;;0.95;;
4096;SDS011;2062;50.694;7.246;2022-09-09T07:37:29;3.70;;;0.80;;
4096;SDS011;2062;50.694;7.246;2022-09-09T07:39:56;3.97;;;1.10;;
4096;SDS011;2062;50.694;7.246;2022-09-09T07:42:23;4.03;;;0.95;;
4096;SDS011;2062;50.694;7.246;2022-09-09T07:44:50;3.92;;;1.10;;
4096;SDS011;2062;50.694;7.246;2022-09-09T07:47:19;4.40;;;0.90;;
4096;SDS011;2062;50.694;7.246;2022-09-09T07:49:48;3.70;;;0.93;;
4096;SDS011;2062;50.694;7.246;2022-09-09T07:52:15;4.13;;;1.00;;
4096;SDS011;2062;50.694;7.246;2022-09-09T07:54:41;3.75;;;0.88;;
4096;SDS011;2062;50.694;7.246;2022-09-09T07:57:10;3.75;;;1.08;;
4096;SDS011;2062;50.694;7.246;2022-09-09T07:59:37;3.78;;;0.93;;
4096;SDS011;2062;50.694;7.246;2022-09-09T08:02:04;4.65;;;1.00;;
4096;SDS011;2062;50.694;7.246;2022-09-09T08:04:31;3.67;;;1.10;;
4096;SDS011;2062;50.694;7.246;2022-09-09T08:07:00;4.65;;;1.00;;
4096;SDS011;2062;50.694;7.246;2022-09-09T08:09:28;3.47;;;1.05;;
4096;SDS011;2062;50.694;7.246;2022-09-09T08:11:57;3.75;;;0.90;;
4096;SDS011;2062;50.694;7.246;2022-09-09T08:14:25;3.75;;;1.10;;
4096;SDS011;2062;50.694;7.246;2022-09-09T08:16:51;4.73;;;1.10;;
4096;SDS011;2062;50.694;7.246;2022-09-09T08:19:19;3.90;;;1.08;;
4096;SDS011;2062;50.694;7.246;2022-09-09T08:21:45;3.90;;;1.10;;
4096;SDS011;2062;50.694;7.246;2022-09-09T08:24:15;3.30;;;0.95;;
4096;SDS011;2062;50.694;7.246;2022-09-09T08:26:42;4.15;;;1.20;;
4096;SDS011;2062;50.694;7.246;2022-09-09T08:29:10;3.33;;;1.00;;
4096;SDS011;2062;50.694;7.246;2022-09-09T08:31:39;5.22;;;1.10;;
4096;SDS011;2062;50.694;7.246;2022-09-09T08:34:07;4.22;;;1.20;;
4096;SDS011;2062;50.694;7.246;2022-09-09T08:36:35;3.85;;;1.10;;
4096;SDS011;2062;50.694;7.246;2022-09-09T08:39:05;3.83;;;1.00;;
4096;SDS011;2062;50.694;7.246;2022-09-09T08:41:43;3.33;;;0.90;;
4096;SDS011;2062;50.694;7.246;2022-09-09T08:44:32;3.95;;;0.80;;
4096;SDS011;2062;50.694;7.246;2022-09-09T08:47:11;3.92;;;1.00;;
4096;SDS011;2062;50.694;7.246;2022-09-09T08:49:57;3.20;;;0.90;;
4096;SDS011;2062;50.694;7.246;2022-09-09T08:52:36;3.85;;;1.00;;
4096;SDS011;2062;50.694;7.246;2022-09-09T08:55:17;3.53;;;1.20;;
4096;SDS011;2062;50.694;7.246;2022-09-09T08:57:51;3.85;;;1.02;;
4096;SDS011;2062;50.694;7.246;2022-09-09T09:00:20;3.58;;;0.90;;
4096;SDS011;2062;50.694;7.246;2022-09-09T09:02:48;3.75;;;1.00;;
4096;SDS011;2062;50.694;7.246;2022-09-09T09:05:27;3.20;;;0.98;;
4096;SDS011;2062;50.694;7.246;2022-09-09T09:08:01;4.43;;;1.00;;
4096;SDS011;2062;50.694;7.246;2022-09-09T09:10:40;3.60;;;0.75;;
4096;SDS011;2062;50.694;7.246;2022-09-09T09:13:15;4.05;;;1.10;;
4096;SDS011;2062;50.694;7.246;2022-09-09T09:15:46;3.30;;;0.70;;
4096;SDS011;2062;50.694;7.246;2022-09-09T09:18:16;4.00;;;1.00;;
4096;SDS011;2062;50.694;7.246;2022-09-09T09:20:46;3.57;;;0.87;;
4096;SDS011;2062;50.694;7.246;2022-09-09T09:23:21;3.80;;;1.00;;
4096;SDS011;2062;50.694;7.246;2022-09-09T09:25:48;3.35;;;0.98;;
4096;SDS011;2062;50.694;7.246;2022-09-09T09:28:20;3.60;;;1.10;;
4096;SDS011;2062;50.694;7.246;2022-09-09T09:30:52;4.10;;;1.13;;
4096;SDS011;2062;50.694;7.246;2022-09-09T09:33:23;3.93;;;0.90;;
4096;SDS011;2062;50.694;7.246;2022-09-09T09:35:55;4.25;;;0.85;;
4096;SDS011;2062;50.694;7.246;2022-09-09T09:38:25;3.10;;;0.90;;
4096;SDS011;2062;50.694;7.246;2022-09-09T09:40:53;3.63;;;1.00;;
4096;SDS011;2062;50.694;7.246;2022-09-09T09:43:25;3.25;;;0.90;;
4096;SDS011;2062;50.694;7.246;2022-09-09T09:45:54;3.37;;;1.00;;
4096;SDS011;2062;50.694;7.246;2022-09-09T09:48:23;3.95;;;0.80;;
4096;SDS011;2062;50.694;7.246;2022-09-09T09:50:50;3.47;;;0.90;;
4096;SDS011;2062;50.694;7.246;2022-09-09T09:53:20;4.00;;;0.90;;
4096;SDS011;2062;50.694;7.246;2022-09-09T09:55:52;3.22;;;1.08;;
4096;SDS011;2062;50.694;7.246;2022-09-09T09:58:21;3.50;;;0.80;;
4096;SDS011;2062;50.694;7.246;2022-09-09T10:00:49;3.70;;;0.88;;
4096;SDS011;2062;50.694;7.246;2022-09-09T10:03:22;3.08;;;1.00;;
4096;SDS011;2062;50.694;7.246;2022-09-09T10:05:51;4.43;;;1.00;;
4096;SDS011;2062;50.694;7.246;2022-09-09T10:08:19;3.88;;;1.10;;
4096;SDS011;2062;50.694;7.246;2022-09-09T10:10:49;2.97;;;0.80;;
4096;SDS011;2062;50.694;7.246;2022-09-09T10:13:29;3.45;;;1.00;;
4096;SDS011;2062;50.694;7.246;2022-09-09T10:16:16;3.80;;;1.15;;
4096;SDS011;2062;50.694;7.246;2022-09-09T10:21:47;3.20;;;0.90;;
4096;SDS011;2062;50.694;7.246;2022-09-09T10:27:22;3.03;;;0.70;;
4096;SDS011;2062;50.694;7.246;2022-09-09T10:29:58;3.35;;;0.90;;
4096;SDS011;2062;50.694;7.246;2022-09-09T10:32:39;3.45;;;0.90;;
4096;SDS011;2062;50.694;7.246;2022-09-09T10:40:46;2.80;;;0.85;;
4096;SDS011;2062;50.694;7.246;2022-09-09T10:43:46;3.25;;;0.90;;
4096;SDS011;2062;50.694;7.246;2022-09-09T10:46:39;3.22;;;0.82;;
4096;SDS011;2062;50.694;7.246;2022-09-09T10:49:26;3.00;;;0.88;;
4096;SDS011;2062;50.694;7.246;2022-09-09T10:52:11;2.53;;;0.80;;
4096;SDS011;2062;50.694;7.246;2022-09-09T10:54:47;2.90;;;0.77;;
4096;SDS011;2062;50.694;7.246;2022-09-09T10:57:25;3.88;;;0.93;;
4096;SDS011;2062;50.694;7.246;2022-09-09T10:59:57;3.25;;;0.90;;
4096;SDS011;2062;50.694;7.246;2022-09-09T11:02:29;3.33;;;0.80;;
4096;SDS011;2062;50.694;7.246;2022-09-09T11:04:59;3.43;;;0.90;;
4096;SDS011;2062;50.694;7.246;2022-09-09T11:07:31;2.97;;;0.90;;
4096;SDS011;2062;50.694;7.246;2022-09-09T11:10:02;2.50;;;0.70;;
4096;SDS011;2062;50.694;7.246;2022-09-09T11:12:32;2.90;;;0.80;;
4096;SDS011;2062;50.694;7.246;2022-09-09T11:15:04;4.25;;;1.00;;
4096;SDS011;2062;50.694;7.246;2022-09-09T11:17:42;3.17;;;0.70;;
4096;SDS011;2062;50.694;7.246;2022-09-09T11:20:15;3.67;;;0.80;;
4096;SDS011;2062;50.694;7.246;2022-09-09T11:22:44;3.30;;;1.00;;
4096;SDS011;2062;50.694;7.246;2022-09-09T11:25:15;3.47;;;0.70;;
4096;SDS011;2062;50.694;7.246;2022-09-09T11:27:45;3.30;;;0.80;;
4096;SDS011;2062;50.694;7.246;2022-09-09T11:30:22;3.10;;;0.80;;
4096;SDS011;2062;50.694;7.246;2022-09-09T11:38:55;3.00;;;0.70;;
4096;SDS011;2062;50.694;7.246;2022-09-09T11:41:32;2.88;;;0.68;;
4096;SDS011;2062;50.694;7.246;2022-09-09T11:44:08;3.10;;;0.90;;
4096;SDS011;2062;50.694;7.246;2022-09-09T11:46:37;2.80;;;0.70;;
4096;SDS011;2062;50.694;7.246;2022-09-09T11:49:21;3.38;;;0.90;;
4096;SDS011;2062;50.694;7.246;2022-09-09T11:51:53;3.17;;;0.88;;
4096;SDS011;2062;50.694;7.246;2022-09-09T11:54:31;2.90;;;0.70;;
4096;SDS011;2062;50.694;7.246;2022-09-09T11:57:00;2.63;;;0.63;;
4096;SDS011;2062;50.694;7.246;2022-09-09T11:59:30;3.08;;;0.70;;
4096;SDS011;2062;50.694;7.246;2022-09-09T12:01:58;2.90;;;0.70;;
4096;SDS011;2062;50.694;7.246;2022-09-09T12:04:33;2.30;;;0.60;;
4096;SDS011;2062;50.694;7.246;2022-09-09T12:07:05;4.60;;;0.90;;
4096;SDS011;2062;50.694;7.246;2022-09-09T12:09:56;3.13;;;0.80;;
4096;SDS011;2062;50.694;7.246;2022-09-09T12:12:28;3.20;;;0.80;;
4096;SDS011;2062;50.694;7.246;2022-09-09T12:15:03;3.13;;;0.80;;
4096;SDS011;2062;50.694;7.246;2022-09-09T12:17:46;3.35;;;0.95;;
4096;SDS011;2062;50.694;7.246;2022-09-09T12:20:16;2.58;;;0.75;;
4096;SDS011;2062;50.694;7.246;2022-09-09T12:26:01;3.03;;;0.80;;
4096;SDS011;2062;50.694;7.246;2022-09-09T12:31:22;5.18;;;0.90;;
4096;SDS011;2062;50.694;7.246;2022-09-09T12:34:02;6.97;;;1.30;;
4096;SDS011;2062;50.694;7.246;2022-09-09T12:36:36;4.50;;;1.00;;
4096;SDS011;2062;50.694;7.246;2022-09-09T12:39:09;5.28;;;0.90;;
4096;SDS011;2062;50.694;7.246;2022-09-09T12:41:50;4.55;;;0.90;;
4096;SDS011;2062;50.694;7.246;2022-09-09T12:44:22;3.60;;;0.90;;
4096;SDS011;2062;50.694;7.246;2022-09-09T12:46:49;3.55;;;0.85;;
4096;SDS011;2062;50.694;7.246;2022-09-09T12:49:25;6.53;;;1.27;;
4096;SDS011;2062;50.694;7.246;2022-09-09T12:51:56;4.82;;;0.80;;
4096;SDS011;2062;50.694;7.246;2022-09-09T12:54:23;4.80;;;0.85;;
4096;SDS011;2062;50.694;7.246;2022-09-09T12:56:52;3.78;;;0.90;;
4096;SDS011;2062;50.694;7.246;2022-09-09T12:59:22;4.40;;;1.30;;
4096;SDS011;2062;50.694;7.246;2022-09-09T13:01:55;5.30;;;1.00;;
4096;SDS011;2062;50.694;7.246;2022-09-09T13:04:23;4.90;;;1.00;;
4096;SDS011;2062;50.694;7.246;2022-09-09T13:06:50;5.70;;;1.33;;
4096;SDS011;2062;50.694;7.246;2022-09-09T13:09:18;3.13;;;0.90;;
4096;SDS011;2062;50.694;7.246;2022-09-09T13:11:46;3.78;;;0.82;;
4096;SDS011;2062;50.694;7.246;2022-09-09T13:14:17;4.57;;;0.90;;
4096;SDS011;2062;50.694;7.246;2022-09-09T13:16:54;4.80;;;0.80;;
4096;SDS011;2062;50.694;7.246;2022-09-09T13:19:23;3.55;;;0.95;;
4096;SDS011;2062;50.694;7.246;2022-09-09T13:21:53;3.60;;;1.20;;
4096;SDS011;2062;50.694;7.246;2022-09-09T13:24:27;5.82;;;0.90;;
4096;SDS011;2062;50.694;7.246;2022-09-09T13:26:57;5.07;;;0.80;;
4096;SDS011;2062;50.694;7.246;2022-09-09T13:29:28;5.05;;;0.65;;
4096;SDS011;2062;50.694;7.246;2022-09-09T13:32:03;6.95;;;1.10;;
4096;SDS011;2062;50.694;7.246;2022-09-09T13:34:33;4.82;;;0.80;;
4096;SDS011;2062;50.694;7.246;2022-09-09T13:37:02;3.90;;;0.80;;
4096;SDS011;2062;50.694;7.246;2022-09-09T13:39:32;5.07;;;0.90;;
4096;SDS011;2062;50.694;7.246;2022-09-09T13:42:02;4.15;;;0.60;;
4096;SDS011;2062;50.694;7.246;2022-09-09T13:44:31;3.97;;;0.80;;
4096;SDS011;2062;50.694;7.246;2022-09-09T13:47:02;4.97;;;1.20;;
4096;SDS011;2062;50.694;7.246;2022-09-09T13:49:31;6.35;;;0.90;;
4096;SDS011;2062;50.694;7.246;2022-09-09T13:52:08;6.03;;;0.77;;
4096;SDS011;2062;50.694;7.246;2022-09-09T13:54:42;4.78;;;0.75;;
4096;SDS011;2062;50.694;7.246;2022-09-09T13:57:14;3.67;;;0.82;;
4096;SDS011;2062;50.694;7.246;2022-09-09T13:59:44;5.05;;;0.80;;
4096;SDS011;2062;50.694;7.246;2022-09-09T14:02:11;8.07;;;0.93;;
4096;SDS011;2062;50.694;7.246;2022-09-09T14:04:38;5.07;;;1.00;;
4096;SDS011;2062;50.694;7.246;2022-09-09T14:07:08;5.40;;;0.80;;
4096;SDS011;2062;50.694;7.246;2022-09-09T14:09:37;5.70;;;0.80;;
4096;SDS011;2062;50.694;7.246;2022-09-09T14:12:05;3.78;;;0.50;;
4096;SDS011;2062;50.694;7.246;2022-09-09T14:14:34;5.43;;;0.82;;
4096;SDS011;2062;50.694;7.246;2022-09-09T14:17:02;3.20;;;0.60;;
4096;SDS011;2062;50.694;7.246;2022-09-09T14:19:29;4.55;;;0.70;;
4096;SDS011;2062;50.694;7.246;2022-09-09T14:21:56;6.40;;;0.85;;
4096;SDS011;2062;50.694;7.246;2022-09-09T14:24:23;3.72;;;0.73;;
4096;SDS011;2062;50.694;7.246;2022-09-09T14:26:51;4.78;;;0.75;;
4096;SDS011;2062;50.694;7.246;2022-09-09T14:29:18;4.60;;;0.70;;
4096;SDS011;2062;50.694;7.246;2022-09-09T14:31:45;6.30;;;1.00;;
4096;SDS011;2062;50.694;7.246;2022-09-09T14:34:13;4.65;;;0.80;;
4096;SDS011;2062;50.694;7.246;2022-09-09T14:36:40;3.28;;;0.77;;
4096;SDS011;2062;50.694;7.246;2022-09-09T14:39:07;3.95;;;0.60;;
4096;SDS011;2062;50.694;7.246;2022-09-09T14:41:34;4.93;;;0.80;;
4096;SDS011;2062;50.694;7.246;2022-09-09T14:44:01;4.97;;;0.90;;
4096;SDS011;2062;50.694;7.246;2022-09-09T14:46:28;3.95;;;0.80;;
4096;SDS011;2062;50.694;7.246;2022-09-09T14:48:56;4.25;;;0.60;;
4096;SDS011;2062;50.694;7.246;2022-09-09T14:51:24;3.42;;;0.80;;
4096;SDS011;2062;50.694;7.246;2022-09-09T14:53:53;6.70;;;0.70;;
4096;SDS011;2062;50.694;7.246;2022-09-09T14:56:22;6.75;;;0.80;;
4096;SDS011;2062;50.694;7.246;2022-09-09T14:58:50;4.88;;;0.93;;
4096;SDS011;2062;50.694;7.246;2022-09-09T15:01:19;3.55;;;0.70;;
4096;SDS011;2062;50.694;7.246;2022-09-09T15:03:50;5.78;;;0.70;;
4096;SDS011;2062;50.694;7.246;2022-09-09T15:06:19;4.37;;;0.93;;
4096;SDS011;2062;50.694;7.246;2022-09-09T15:08:49;3.53;;;0.70;;
4096;SDS011;2062;50.694;7.246;2022-09-09T15:11:17;11.60;;;0.80;;
4096;SDS011;2062;50.694;7.246;2022-09-09T15:13:45;8.32;;;1.40;;
4096;SDS011;2062;50.694;7.246;2022-09-09T15:16:14;8.70;;;1.08;;
4096;SDS011;2062;50.694;7.246;2022-09-09T15:18:42;7.47;;;1.00;;
4096;SDS011;2062;50.694;7.246;2022-09-09T15:21:10;11.50;;;1.15;;
4096;SDS011;2062;50.694;7.246;2022-09-09T15:23:38;8.50;;;1.05;;
4096;SDS011;2062;50.694;7.246;2022-09-09T15:26:06;8.30;;;1.02;;
4096;SDS011;2062;50.694;7.246;2022-09-09T15:28:34;11.55;;;1.20;;
4096;SDS011;2062;50.694;7.246;2022-09-09T15:31:04;5.77;;;1.13;;
4096;SDS011;2062;50.694;7.246;2022-09-09T15:33:33;7.90;;;1.20;;
4096;SDS011;2062;50.694;7.246;2022-09-09T15:36:11;9.38;;;1.08;;
4096;SDS011;2062;50.694;7.246;2022-09-09T15:38:39;7.05;;;1.00;;
4096;SDS011;2062;50.694;7.246;2022-09-09T15:41:08;10.10;;;1.15;;
4096;SDS011;2062;50.694;7.246;2022-09-09T15:43:35;9.00;;;1.07;;
4096;SDS011;2062;50.694;7.246;2022-09-09T15:46:05;5.88;;;1.02;;
4096;SDS011;2062;50.694;7.246;2022-09-09T15:48:49;7.63;;;0.88;;
4096;SDS011;2062;50.694;7.246;2022-09-09T15:51:16;6.25;;;1.08;;
4096;SDS011;2062;50.694;7.246;2022-09-09T15:53:43;8.23;;;1.10;;
4096;SDS011;2062;50.694;7.246;2022-09-09T15:56:12;6.70;;;1.00;;
4096;SDS011;2062;50.694;7.246;2022-09-09T15:58:39;6.18;;;1.20;;